Nearby METAR Reports

 

EGNT - Newcastle, United Kingdom
Distance from station: NNE 1mi, 2km
Updated: 19/08/2019 21:20
Few Clouds
Few Clouds
 Wind from SW
Wind: SW 8 mph , 13 km/h
Temperature: 12°C
Dew Point: 10°C
Humidity: 88%
Barometer: 1011 hPa
Clouds: Few Clouds
Visibility: 6 miles , 10 km
Cloud details: Few Clouds 1219 m
2019/08/19 20:20 EGNT 192020Z 22007KT 190V270 9999 FEW040 12/10 Q1011
EGQM - Boulmer, United Kingdom
Distance from station: N 29mi, 47km
Updated: 08/08/2019 12:50
NOT Current
Few Clouds
Few Clouds
 Wind from varies
Wind: varies 0 mph , 0 km/h
Temperature: 17°C
Dew Point: 14°C
Humidity: 83%
Barometer: 1009 hPa
Clouds: Few Clouds
Cloud details: Few Clouds 671 m
2019/08/08 11:50 EGQM 081150Z AUTO /////KT //// // FEW022/// 17/14 Q1009
 
EGOM - Spadeadam, United Kingdom
Distance from station: W 34mi, 54km
Updated: 19/08/2019 20:50
Clear
Clear
 Wind from W
Wind: W 14 mph , 22 km/h
Temperature: 11°C
Dew Point: 10°C
Humidity: 94%
Barometer: 1011 hPa
Clouds: Clear
Visibility: 6 miles , 10 km
2019/08/19 19:50 EGOM 191950Z AUTO 26012KT 9999 NCD 11/10 Q1011
EGNV - Tees-Side, United Kingdom
Distance from station: SSE 35mi, 57km
Updated: 19/08/2019 21:20
Clear
Clear
 Wind from SW
Wind: SW 9 mph , 15 km/h
Temperature: 14°C
Dew Point: 9°C
Humidity: 72%
Barometer: 1012 hPa
Summary: Clear
Visibility: greater than 7 miles , 10 km
2019/08/19 20:20 EGNV 192020Z 22008KT CAVOK 14/09 Q1012
 
EGNC - Carlisle, United Kingdom
Distance from station: W 45mi, 72km
Updated: 19/08/2019 17:50
NOT Current
Partly cloudy
Partly cloudy
 Wind from WSW
Wind: WSW 21 mph , 33 km/h
Temperature: 16°C
Dew Point: 10°C
Humidity: 68%
Barometer: 1010 hPa
Clouds: Partly cloudy
Visibility: 6 miles , 10 km
Cloud details: Partly cloudy 914 m
2019/08/19 16:50 EGNC 191650Z 25018KT 220V280 9999 SCT030 16/10 Q1010
EGXE - Leeming Raf, United Kingdom
Distance from station: S 50mi, 81km
Updated: 19/08/2019 20:50
Clear
Clear
 Wind from SW
Wind: SW 10 mph , 17 km/h
Temperature: 14°C
Dew Point: 9°C
Humidity: 72%
Barometer: 1012 hPa
Clouds: Clear
Visibility: 6 miles , 10 km
2019/08/19 19:50 EGXE 191950Z AUTO 22009KT 9999 NCD 14/09 Q1012
 
EGXZ - Topcliffe Raf, United Kingdom
Distance from station: SSE 57mi, 91km
Updated: 19/08/2019 20:50
Clear
Clear
 Wind from SW
Wind: SW 8 mph , 13 km/h
Temperature: 14°C
Dew Point: 10°C
Humidity: 77%
Barometer: 1013 hPa
Clouds: Clear
Visibility: 6 miles , 10 km
2019/08/19 19:50 EGXZ 191950Z AUTO 23007KT 9999 NCD 14/10 Q1013
EGXU - Linton-On-Ouse R, United Kingdom
Distance from station: SSE 68mi, 110km
Updated: 19/08/2019 20:50
Partly cloudy
Partly cloudy
 Wind from WSW
Wind: WSW 7 mph , 11 km/h
Temperature: 14°C
Dew Point: 10°C
Humidity: 77%
Barometer: 1013 hPa
Clouds: Partly cloudy
Visibility: 6 miles , 10 km
Cloud details: Partly cloudy 1524 m
2019/08/19 19:50 EGXU 191950Z AUTO 24006KT 9999 // SCT050/// 14/10 Q1013
 
EGNM - Leeds And Bradfo, United Kingdom
Distance from station: S 78mi, 126km
Updated: 19/08/2019 21:20
Few Clouds
Few Clouds
 Wind from WSW
Wind: WSW 9 mph , 15 km/h
Temperature: 13°C
Dew Point: 9°C
Humidity: 77%
Barometer: 1014 hPa
Clouds: Few Clouds
Visibility: 6 miles , 10 km
Cloud details: Few Clouds 549 m
2019/08/19 20:20 EGNM 192020Z 24008KT 200V280 9999 FEW018 13/09 Q1014
EGPH - Edinburgh Airpor, United Kingdom
Distance from station: NW 92mi, 148km
Updated: 19/08/2019 21:20
Few Clouds
Few Clouds
 Wind from SW
Wind: SW 14 mph , 22 km/h
Temperature: 13°C
Dew Point: 11°C
Humidity: 88%
Barometer: 1009 hPa
Clouds: Few Clouds
Visibility: 6 miles , 10 km
Cloud details: Few Clouds 1372 m
2019/08/19 20:20 EGPH 192020Z 23012KT 9999 FEW045 13/11 Q1009
 
EGXV - Leconfield (aut), United Kingdom
Distance from station: SE 93mi, 150km
Updated: 19/08/2019 20:50
Clear
Clear
 Wind from SW
Wind: SW 3 mph , 6 km/h
Temperature: 13°C
Dew Point: 8°C
Humidity: 72%
Barometer: 1013 hPa
Clouds: Clear
Visibility: 6 miles , 10 km
2019/08/19 19:50 EGXV 191950Z AUTO 22003KT 9999 NCD 13/08 Q1013
EGNO - Wharton, United Kingdom
Distance from station: SSW 99mi, 159km
Updated: 19/08/2019 18:50
NOT Current
Partly cloudy
Partly cloudy
 Wind from W
Wind: W 21 mph , 33 km/h
Temperature: 16°C
Dew Point: 11°C
Humidity: 72%
Barometer: 1012 hPa
Clouds: Partly cloudy
Visibility: 6 miles , 10 km
Cloud details: Partly cloudy 792 m
2019/08/19 17:50 EGNO 191750Z 26018KT 9999 SCT026 16/11 Q1012
 
EGNH - Blackpool Airpor, United Kingdom
Distance from station: SSW 100mi, 161km
Updated: 19/08/2019 20:50
Clear
Clear
 Wind from W
Wind: W 23 mph , 37 km/h
Temperature: 15°C
Dew Point: 11°C
Humidity: 77%
Barometer: 1013 hPa
Summary: Clear
Visibility: greater than 7 miles , 10 km
2019/08/19 19:50 EGNH 191950Z 26020KT CAVOK 15/11 Q1013